createdAt,value
2022-09-27T03:46:11.336Z,10.40
2022-09-27T03:48:38.171Z,10.40
2022-09-27T03:51:05.057Z,10.40
2022-09-27T03:53:31.807Z,10.40
2022-09-27T03:55:58.741Z,10.40
2022-09-27T03:58:25.569Z,10.40
2022-09-27T04:00:52.293Z,10.40
2022-09-27T04:03:19.821Z,10.40
2022-09-27T04:05:46.781Z,10.40
2022-09-27T04:08:13.704Z,10.40
2022-09-27T04:10:41.656Z,10.40
2022-09-27T04:13:08.380Z,10.40
2022-09-27T04:15:35.298Z,10.40
2022-09-27T04:18:02.051Z,10.40
2022-09-27T04:20:28.877Z,10.40
2022-09-27T04:22:55.575Z,10.40
2022-09-27T04:25:22.308Z,10.40
2022-09-27T04:27:52.045Z,10.30
2022-09-27T04:30:19.099Z,10.40
2022-09-27T04:32:46.169Z,10.40
2022-09-27T04:35:32.365Z,10.30
2022-09-27T04:37:59.657Z,10.30
2022-09-27T04:40:26.479Z,10.30
2022-09-27T04:42:53.222Z,10.20
2022-09-27T04:45:20.518Z,10.20
2022-09-27T04:47:49.506Z,10.20
2022-09-27T04:50:22.940Z,10.20
2022-09-27T04:52:54.391Z,10.10
2022-09-27T04:55:22.182Z,10.10
2022-09-27T04:57:49.780Z,10.10
2022-09-27T05:00:17.182Z,10.00
2022-09-27T05:02:44.958Z,10.00
2022-09-27T05:05:12.086Z,10.00
2022-09-27T05:07:39.643Z,10.00
2022-09-27T05:10:08.053Z,9.90
2022-09-27T05:12:35.622Z,9.90
2022-09-27T05:15:02.635Z,9.90
2022-09-27T05:17:29.382Z,9.90
2022-09-27T05:19:56.057Z,9.90
2022-09-27T05:22:22.823Z,9.90
2022-09-27T05:24:49.541Z,9.90
2022-09-27T05:27:20.334Z,9.90
2022-09-27T05:29:47.833Z,9.90
2022-09-27T05:32:15.264Z,9.90
2022-09-27T05:34:42.676Z,9.90
2022-09-27T05:37:09.790Z,10.00
2022-09-27T05:39:36.550Z,10.00
2022-09-27T05:42:04.857Z,10.00
2022-09-27T05:44:31.582Z,10.00
2022-09-27T05:47:03.231Z,10.00
2022-09-27T05:49:30.059Z,9.90
2022-09-27T05:51:56.894Z,9.90
2022-09-27T05:54:23.588Z,9.90
2022-09-27T05:56:51.284Z,9.90
2022-09-27T05:59:17.982Z,9.90
2022-09-27T06:01:44.908Z,9.90
2022-09-27T06:04:11.644Z,9.90
2022-09-27T06:06:38.701Z,9.90
2022-09-27T06:09:05.494Z,9.90
2022-09-27T06:11:32.205Z,9.90
2022-09-27T06:13:58.967Z,10.00
2022-09-27T06:16:25.820Z,10.00
2022-09-27T06:18:52.572Z,10.10
2022-09-27T06:21:19.386Z,10.10
2022-09-27T06:23:47.968Z,10.20
2022-09-27T06:26:17.049Z,10.10
2022-09-27T06:28:44.718Z,10.10
2022-09-27T06:31:12.038Z,10.10
2022-09-27T06:33:38.913Z,10.00
2022-09-27T06:36:07.592Z,10.00
2022-09-27T06:38:34.890Z,10.00
2022-09-27T06:41:03.237Z,10.00
2022-09-27T06:43:31.234Z,10.10
2022-09-27T06:46:05.473Z,10.10
2022-09-27T06:48:33.444Z,10.10
2022-09-27T06:51:00.541Z,10.10
2022-09-27T06:53:29.107Z,10.20
2022-09-27T06:56:01.253Z,10.10
2022-09-27T06:58:49.460Z,10.10
2022-09-27T07:01:17.625Z,10.10
2022-09-27T07:03:49.116Z,10.20
2022-09-27T07:06:22.827Z,10.20
2022-09-27T07:08:52.237Z,10.10
2022-09-27T07:11:19.579Z,10.10
2022-09-27T07:13:46.326Z,10.00
2022-09-27T07:16:14.393Z,9.90
2022-09-27T07:18:42.334Z,9.90
2022-09-27T07:21:09.545Z,9.70
2022-09-27T07:23:37.065Z,9.70
2022-09-27T07:26:06.873Z,9.70
2022-09-27T07:28:34.673Z,9.70
2022-09-27T07:31:02.496Z,9.60
2022-09-27T07:33:31.132Z,9.60
2022-09-27T07:35:57.919Z,9.60
2022-09-27T07:38:25.023Z,9.60
2022-09-27T07:40:51.831Z,9.70
2022-09-27T07:43:19.574Z,9.70
2022-09-27T07:45:46.863Z,9.80
2022-09-27T07:48:15.815Z,10.10
2022-09-27T07:50:42.780Z,10.30
2022-09-27T07:53:12.781Z,10.30
2022-09-27T07:55:40.146Z,10.20
2022-09-27T07:58:12.065Z,10.10
2022-09-27T08:00:40.832Z,10.10
2022-09-27T08:03:13.925Z,10.10
2022-09-27T08:05:40.788Z,10.20
2022-09-27T08:08:07.780Z,10.20
2022-09-27T08:10:35.194Z,10.30
2022-09-27T08:13:03.718Z,10.30
2022-09-27T08:15:39.102Z,10.30
2022-09-27T08:18:07.804Z,10.30
2022-09-27T08:20:34.530Z,10.30
2022-09-27T08:23:04.249Z,10.40
2022-09-27T08:25:31.351Z,10.50
2022-09-27T08:27:59.711Z,10.50
2022-09-27T08:30:27.655Z,10.50
2022-09-27T08:32:58.581Z,10.50
2022-09-27T08:35:26.599Z,10.50
2022-09-27T08:38:03.668Z,10.70
2022-09-27T08:41:05.118Z,10.80
2022-09-27T08:43:46.964Z,11.80
2022-09-27T08:46:19.774Z,12.50
2022-09-27T08:48:51.668Z,12.60
2022-09-27T08:51:24.341Z,12.70
2022-09-27T08:54:01.587Z,13.10
2022-09-27T08:56:28.579Z,12.70
2022-09-27T08:59:22.004Z,12.20
2022-09-27T09:01:51.180Z,12.00
2022-09-27T09:04:32.598Z,12.00
2022-09-27T09:07:18.549Z,11.80
2022-09-27T09:10:03.581Z,11.70
2022-09-27T09:12:48.725Z,11.20
2022-09-27T09:15:30.357Z,10.90
2022-09-27T09:18:06.197Z,10.80
2022-09-27T09:21:11.804Z,10.80
2022-09-27T09:23:57.347Z,11.00
2022-09-27T09:26:42.557Z,11.30
2022-09-27T09:29:45.827Z,11.30
2022-09-27T09:32:24.426Z,11.20
2022-09-27T09:35:28.077Z,11.10
2022-09-27T09:37:59.833Z,11.10
2022-09-27T09:40:32.451Z,11.10
2022-09-27T09:43:29.015Z,10.80
2022-09-27T09:46:02.300Z,10.70
2022-09-27T09:48:39.378Z,10.70
2022-09-27T09:51:11.747Z,10.90
2022-09-27T09:54:04.709Z,10.90
2022-09-27T09:56:45.650Z,11.10
2022-09-27T09:59:26.743Z,11.00
2022-09-27T10:01:58.382Z,11.00
2022-09-27T10:04:32.713Z,10.80
2022-09-27T10:07:00.776Z,10.90
2022-09-27T10:09:28.802Z,10.90
2022-09-27T10:11:55.870Z,10.80
2022-09-27T10:14:23.292Z,10.90
2022-09-27T10:16:55.387Z,11.00
2022-09-27T10:19:37.336Z,10.90
2022-09-27T10:22:12.265Z,10.80
2022-09-27T10:25:04.315Z,10.70
2022-09-27T10:27:46.353Z,10.50
2022-09-27T10:30:23.968Z,10.40
2022-09-27T10:32:54.676Z,10.30
2022-09-27T10:35:23.790Z,10.10
2022-09-27T10:37:51.067Z,9.90
2022-09-27T10:40:35.950Z,10.00
2022-09-27T10:43:02.715Z,10.30
2022-09-27T10:45:32.016Z,10.50
2022-09-27T10:48:01.363Z,10.70
2022-09-27T10:50:51.393Z,10.70
2022-09-27T10:53:21.588Z,10.50
2022-09-27T10:55:51.466Z,10.30
2022-09-27T10:58:33.362Z,10.30
2022-09-27T11:01:07.364Z,10.40
2022-09-27T11:03:46.422Z,10.50
2022-09-27T11:06:23.578Z,10.90
2022-09-27T11:08:54.670Z,11.50
2022-09-27T11:11:25.619Z,11.90
2022-09-27T11:14:09.679Z,12.70
2022-09-27T11:16:55.109Z,12.90
2022-09-27T11:19:33.840Z,12.90
2022-09-27T11:22:20.330Z,12.60
2022-09-27T11:25:32.051Z,12.70
2022-09-27T11:28:13.953Z,13.10
2022-09-27T11:31:05.505Z,12.70
2022-09-27T11:33:54.158Z,12.40
2022-09-27T11:36:25.524Z,12.40
2022-09-27T11:39:02.959Z,13.30
2022-09-27T11:41:38.325Z,14.40
2022-09-27T11:45:19.846Z,15.10
2022-09-27T11:47:48.708Z,14.30
2022-09-27T11:50:47.111Z,14.20
2022-09-27T11:53:32.030Z,13.30
2022-09-27T11:56:04.904Z,13.10
2022-09-27T11:58:52.014Z,13.10
2022-09-27T12:01:25.502Z,12.80
2022-09-27T12:04:20.518Z,12.80
2022-09-27T12:06:47.113Z,12.70
2022-09-27T12:09:21.094Z,12.50
2022-09-27T12:11:53.623Z,12.60
2022-09-27T12:14:41.718Z,12.50
2022-09-27T12:17:20.481Z,12.20
2022-09-27T12:19:51.693Z,12.10
2022-09-27T12:22:57.213Z,12.20
2022-09-27T12:25:21.035Z,12.20
2022-09-27T12:28:09.379Z,12.20
2022-09-27T12:30:41.714Z,12.10
2022-09-27T12:33:38.651Z,12.10
2022-09-27T12:36:10.211Z,12.10
2022-09-27T12:38:42.969Z,12.00
2022-09-27T12:41:14.043Z,12.10
2022-09-27T12:43:47.304Z,12.20
2022-09-27T12:46:38.116Z,12.30
2022-09-27T12:49:16.816Z,12.20
2022-09-27T12:51:49.623Z,12.20
2022-09-27T12:54:37.376Z,12.20
2022-09-27T12:57:17.798Z,12.20
2022-09-27T12:59:59.853Z,12.30
2022-09-27T13:03:03.807Z,12.30
2022-09-27T13:05:39.445Z,12.50
2022-09-27T13:08:34.733Z,12.70
2022-09-27T13:11:27.829Z,12.70
2022-09-27T13:13:59.877Z,12.60
2022-09-27T13:16:28.084Z,12.50
2022-09-27T13:19:01.677Z,12.40
2022-09-27T13:21:49.582Z,12.50
2022-09-27T13:24:39.218Z,12.60
2022-09-27T13:27:27.835Z,12.90
2022-09-27T13:30:09.767Z,13.10
2022-09-27T13:32:37.215Z,13.20
2022-09-27T13:35:25.951Z,13.50
2022-09-27T13:37:59.427Z,13.40
2022-09-27T13:40:32.099Z,13.30
2022-09-27T13:42:58.802Z,13.00
2022-09-27T13:45:32.307Z,12.80
2022-09-27T13:47:59.549Z,12.80
2022-09-27T13:50:47.546Z,12.60
2022-09-27T13:53:36.741Z,12.30
2022-09-27T13:56:04.647Z,12.20
2022-09-27T13:58:37.470Z,12.10
2022-09-27T14:01:31.929Z,12.00
2022-09-27T14:04:24.928Z,11.80
2022-09-27T14:07:02.688Z,11.80
2022-09-27T14:09:31.985Z,11.60
2022-09-27T14:12:01.351Z,11.50
2022-09-27T14:14:31.286Z,11.30
2022-09-27T14:17:00.308Z,11.30
2022-09-27T14:19:28.121Z,11.20
2022-09-27T14:22:13.084Z,11.10
2022-09-27T14:24:39.722Z,11.00
2022-09-27T14:27:26.750Z,11.00
2022-09-27T14:29:56.528Z,10.90
2022-09-27T14:32:25.958Z,10.90
2022-09-27T14:35:35.039Z,10.90
2022-09-27T14:38:20.736Z,10.90
2022-09-27T14:40:53.382Z,10.70
2022-09-27T14:43:21.875Z,10.60
2022-09-27T14:45:51.748Z,10.50
2022-09-27T14:48:23.657Z,10.40
2022-09-27T14:51:04.979Z,10.40
2022-09-27T14:53:37.297Z,10.30
2022-09-27T14:56:05.959Z,10.20
2022-09-27T14:58:46.707Z,10.30
2022-09-27T15:01:20.118Z,10.30
2022-09-27T15:03:49.039Z,10.30
2022-09-27T15:06:20.091Z,10.30
2022-09-27T15:08:49.546Z,10.40
2022-09-27T15:11:17.961Z,10.60
2022-09-27T15:13:46.449Z,10.80
2022-09-27T15:16:20.383Z,11.00
2022-09-27T15:18:49.543Z,11.10
2022-09-27T15:21:31.510Z,11.20
2022-09-27T15:23:59.273Z,11.20
2022-09-27T15:26:37.539Z,11.10
2022-09-27T15:29:04.969Z,11.00
2022-09-27T15:31:36.404Z,10.90
2022-09-27T15:34:06.614Z,10.80
2022-09-27T15:36:49.798Z,10.80
2022-09-27T15:39:27.378Z,10.80
2022-09-27T15:42:06.147Z,10.70
2022-09-27T15:44:45.216Z,10.50
2022-09-27T15:47:39.840Z,10.50
2022-09-27T15:50:15.593Z,10.40
2022-09-27T15:52:51.212Z,10.40
2022-09-27T15:55:20.107Z,10.50
2022-09-27T15:57:50.545Z,10.50
2022-09-27T16:00:18.831Z,10.50
2022-09-27T16:02:46.594Z,10.60
2022-09-27T16:05:13.651Z,10.60
2022-09-27T16:07:40.511Z,10.50
2022-09-27T16:10:24.337Z,10.60
2022-09-27T16:12:51.117Z,10.60
2022-09-27T16:15:18.217Z,10.50
2022-09-27T16:17:44.900Z,10.50
2022-09-27T16:20:24.993Z,10.50
2022-09-27T16:22:52.473Z,10.40
2022-09-27T16:25:19.740Z,10.40
2022-09-27T16:27:46.883Z,10.40
2022-09-27T16:30:14.153Z,10.50
2022-09-27T16:32:48.774Z,10.40
2022-09-27T16:35:17.381Z,10.40
2022-09-27T16:37:44.414Z,10.30
2022-09-27T16:40:12.138Z,10.20
2022-09-27T16:42:39.583Z,10.20
2022-09-27T16:45:10.456Z,10.20
2022-09-27T16:47:38.577Z,10.30
2022-09-27T16:50:24.225Z,10.30
2022-09-27T16:52:52.381Z,10.30
2022-09-27T16:55:20.731Z,10.20
2022-09-27T16:57:48.395Z,10.30
2022-09-27T17:00:15.516Z,10.30
2022-09-27T17:02:47.038Z,10.20
2022-09-27T17:05:14.786Z,10.20
2022-09-27T17:07:41.481Z,10.00
2022-09-27T17:10:08.704Z,10.00
2022-09-27T17:12:35.657Z,10.00
2022-09-27T17:15:02.314Z,9.90
2022-09-27T17:17:28.994Z,9.90
2022-09-27T17:19:55.691Z,9.80
2022-09-27T17:22:22.381Z,9.80
2022-09-27T17:24:49.148Z,9.70
2022-09-27T17:27:15.843Z,9.60
2022-09-27T17:29:42.594Z,9.60
2022-09-27T17:32:09.306Z,9.70
2022-09-27T17:34:36.760Z,9.70
2022-09-27T17:37:04.359Z,9.70
2022-09-27T17:39:31.026Z,9.70
2022-09-27T17:41:58.737Z,9.70
2022-09-27T17:44:26.980Z,9.70
2022-09-27T17:47:13.646Z,9.70
2022-09-27T17:49:58.922Z,9.70
2022-09-27T17:52:26.809Z,9.80
2022-09-27T17:54:55.585Z,9.80
2022-09-27T17:57:22.334Z,9.90
2022-09-27T17:59:48.966Z,10.00
2022-09-27T18:02:15.784Z,10.00
2022-09-27T18:04:42.508Z,10.00
2022-09-27T18:07:10.116Z,9.90
2022-09-27T18:09:37.226Z,9.90
2022-09-27T18:12:04.577Z,9.80
2022-09-27T18:14:31.392Z,9.80
2022-09-27T18:16:58.090Z,9.90
2022-09-27T18:19:25.088Z,9.90
2022-09-27T18:21:51.763Z,9.90
2022-09-27T18:24:18.488Z,10.00
2022-09-27T18:26:46.572Z,10.00
2022-09-27T18:29:15.880Z,10.00
2022-09-27T18:31:48.201Z,9.90
2022-09-27T18:34:16.337Z,9.90
2022-09-27T18:36:44.388Z,9.90
2022-09-27T18:39:13.789Z,9.90
2022-09-27T18:41:40.620Z,9.90
2022-09-27T18:44:07.345Z,10.00
2022-09-27T18:46:36.932Z,9.90
2022-09-27T18:49:05.874Z,9.90
2022-09-27T18:51:34.036Z,9.80
2022-09-27T18:54:03.081Z,9.70
2022-09-27T18:56:30.570Z,9.70
2022-09-27T18:58:57.813Z,9.80
2022-09-27T19:01:25.720Z,9.80
2022-09-27T19:03:53.141Z,9.80
2022-09-27T19:06:22.666Z,9.80
2022-09-27T19:08:58.509Z,9.90
2022-09-27T19:11:26.968Z,9.80
2022-09-27T19:13:56.146Z,9.80
2022-09-27T19:16:24.292Z,9.90
2022-09-27T19:18:51.873Z,9.90
2022-09-27T19:21:29.283Z,9.90
2022-09-27T19:23:56.449Z,9.90
2022-09-27T19:26:25.817Z,9.90
2022-09-27T19:28:53.230Z,10.00
2022-09-27T19:31:23.960Z,10.00
2022-09-27T19:33:54.982Z,9.90
2022-09-27T19:36:24.294Z,9.90
2022-09-27T19:38:52.011Z,9.80
2022-09-27T19:41:19.880Z,9.80
2022-09-27T19:43:51.722Z,9.80
2022-09-27T19:46:19.908Z,9.80
2022-09-27T19:48:48.021Z,9.80
2022-09-27T19:51:19.617Z,9.70
2022-09-27T19:53:47.046Z,9.70
2022-09-27T19:56:14.574Z,9.70
2022-09-27T19:58:42.285Z,9.70
2022-09-27T20:01:14.484Z,9.80
2022-09-27T20:03:43.803Z,9.80
2022-09-27T20:06:13.204Z,9.90
2022-09-27T20:08:40.341Z,10.00
2022-09-27T20:11:09.417Z,10.10
2022-09-27T20:13:37.393Z,10.10
2022-09-27T20:16:31.071Z,10.10
2022-09-27T20:19:00.422Z,10.10
2022-09-27T20:21:32.572Z,10.00
2022-09-27T20:24:01.891Z,10.10
2022-09-27T20:26:30.222Z,10.10
2022-09-27T20:28:58.871Z,10.10
2022-09-27T20:31:28.468Z,10.10
2022-09-27T20:33:55.310Z,10.10
2022-09-27T20:36:24.654Z,10.10
2022-09-27T20:38:57.121Z,10.10
2022-09-27T20:41:26.433Z,10.00
2022-09-27T20:43:55.169Z,9.80
2022-09-27T20:46:23.234Z,9.90
2022-09-27T20:48:59.019Z,9.80
2022-09-27T20:51:27.263Z,9.80
2022-09-27T20:53:54.252Z,9.80
2022-09-27T20:56:25.383Z,9.90
2022-09-27T20:58:54.557Z,9.90
2022-09-27T21:01:23.052Z,9.90
2022-09-27T21:03:57.988Z,10.00
2022-09-27T21:06:25.158Z,10.00
2022-09-27T21:08:51.838Z,10.00
2022-09-27T21:11:20.046Z,9.90
2022-09-27T21:13:47.871Z,9.90
2022-09-27T21:16:17.383Z,9.80
2022-09-27T21:18:44.372Z,9.90
2022-09-27T21:21:14.613Z,10.00
2022-09-27T21:23:44.804Z,10.00
2022-09-27T21:26:17.561Z,10.00
2022-09-27T21:28:45.466Z,10.00
2022-09-27T21:31:22.527Z,10.00
2022-09-27T21:33:54.098Z,10.00
2022-09-27T21:36:23.207Z,10.00
2022-09-27T21:38:50.259Z,9.90
2022-09-27T21:41:18.005Z,9.90
2022-09-27T21:43:46.848Z,10.00
2022-09-27T21:46:16.341Z,10.00
2022-09-27T21:48:45.519Z,9.90
2022-09-27T21:51:14.347Z,9.80
2022-09-27T21:53:43.025Z,9.90
2022-09-27T21:56:10.978Z,9.90
2022-09-27T21:58:40.316Z,9.90
2022-09-27T22:01:12.222Z,10.00
2022-09-27T22:03:42.240Z,10.00
2022-09-27T22:06:11.753Z,10.00
2022-09-27T22:08:38.805Z,10.00
2022-09-27T22:11:06.536Z,9.90
2022-09-27T22:13:33.348Z,9.90
2022-09-27T22:16:08.539Z,9.90
2022-09-27T22:18:37.331Z,9.90
2022-09-27T22:21:06.568Z,9.90
2022-09-27T22:23:33.700Z,9.90
2022-09-27T22:26:09.973Z,9.90
2022-09-27T22:28:36.841Z,9.80
2022-09-27T22:31:08.226Z,9.70
2022-09-27T22:33:35.254Z,9.70
2022-09-27T22:36:02.149Z,9.70
2022-09-27T22:38:30.148Z,9.70
2022-09-27T22:40:58.891Z,9.70
2022-09-27T22:43:26.266Z,9.70
2022-09-27T22:45:52.964Z,9.80
2022-09-27T22:48:19.719Z,9.80
2022-09-27T22:50:46.362Z,9.90
2022-09-27T22:53:13.716Z,9.80
2022-09-27T22:55:40.793Z,9.80
2022-09-27T22:58:07.524Z,9.80
